sensor_id;sensor_type;location;lat;lon;timestamp;pressure;altitude;pressure_sealevel;temperature;humidity
49451;BME280;35336;48.400;10.886;2023-02-02T00:00:08;96695.66;;;2.89;76.09
49451;BME280;35336;48.400;10.886;2023-02-02T00:00:24;96707.69;;;3.01;76.28
49451;BME280;35336;48.400;10.886;2023-02-02T00:00:39;96706.72;;;3.02;76.34
49451;BME280;35336;48.400;10.886;2023-02-02T00:00:55;96706.16;;;2.98;76.56
49451;BME280;35336;48.400;10.886;2023-02-02T00:01:10;96712.00;;;3.02;76.32
49451;BME280;35336;48.400;10.886;2023-02-02T00:01:26;96712.00;;;3.02;76.52
49451;BME280;35336;48.400;10.886;2023-02-02T00:01:45;96719.03;;;3.01;76.49
49451;BME280;35336;48.400;10.886;2023-02-02T00:02:01;96715.03;;;2.97;76.27
49451;BME280;35336;48.400;10.886;2023-02-02T00:02:16;96704.38;;;2.89;76.46
49451;BME280;35336;48.400;10.886;2023-02-02T00:02:31;96726.41;;;2.98;76.46
49451;BME280;35336;48.400;10.886;2023-02-02T00:02:47;96712.41;;;2.97;76.21
49451;BME280;35336;48.400;10.886;2023-02-02T00:03:02;96718.38;;;2.99;76.49
49451;BME280;35336;48.400;10.886;2023-02-02T00:03:18;96689.53;;;2.68;76.34
49451;BME280;35336;48.400;10.886;2023-02-02T00:03:33;96725.44;;;2.99;75.96
49451;BME280;35336;48.400;10.886;2023-02-02T00:03:48;96739.31;;;3.01;76.16
49451;BME280;35336;48.400;10.886;2023-02-02T00:04:04;96702.44;;;2.91;76.16
49451;BME280;35336;48.400;10.886;2023-02-02T00:04:25;96705.22;;;2.90;76.15
49451;BME280;35336;48.400;10.886;2023-02-02T00:04:40;96714.50;;;2.94;75.93
49451;BME280;35336;48.400;10.886;2023-02-02T00:04:56;96686.34;;;2.84;76.06
49451;BME280;35336;48.400;10.886;2023-02-02T00:05:11;96704.09;;;3.02;76.15
49451;BME280;35336;48.400;10.886;2023-02-02T00:05:26;96707.13;;;2.97;76.40
49451;BME280;35336;48.400;10.886;2023-02-02T00:05:50;96718.09;;;3.02;76.05
49451;BME280;35336;48.400;10.886;2023-02-02T00:06:06;96714.47;;;3.04;76.60
49451;BME280;35336;48.400;10.886;2023-02-02T00:06:23;96692.88;;;2.90;76.45
49451;BME280;35336;48.400;10.886;2023-02-02T00:06:39;96692.88;;;2.90;76.34
49451;BME280;35336;48.400;10.886;2023-02-02T00:06:54;96716.56;;;3.00;76.73
49451;BME280;35336;48.400;10.886;2023-02-02T00:07:10;96707.69;;;3.01;77.01
49451;BME280;35336;48.400;10.886;2023-02-02T00:07:25;96662.38;;;2.78;76.63
49451;BME280;35336;48.400;10.886;2023-02-02T00:07:41;96705.88;;;3.01;76.38
49451;BME280;35336;48.400;10.886;2023-02-02T00:07:56;96696.31;;;2.91;76.55
49451;BME280;35336;48.400;10.886;2023-02-02T00:08:11;96698.13;;;2.90;76.44
49451;BME280;35336;48.400;10.886;2023-02-02T00:08:27;96714.78;;;3.00;76.78
49451;BME280;35336;48.400;10.886;2023-02-02T00:08:42;96690.38;;;2.89;76.46
49451;BME280;35336;48.400;10.886;2023-02-02T00:09:00;96707.97;;;2.98;76.20
49451;BME280;35336;48.400;10.886;2023-02-02T00:09:17;96685.38;;;2.85;76.23
49451;BME280;35336;48.400;10.886;2023-02-02T00:09:33;96714.50;;;2.94;76.52
49451;BME280;35336;48.400;10.886;2023-02-02T00:09:48;96695.09;;;2.85;76.62
49451;BME280;35336;48.400;10.886;2023-02-02T00:10:04;96709.06;;;2.95;76.48
49451;BME280;35336;48.400;10.886;2023-02-02T00:10:19;96713.53;;;2.95;76.82
49451;BME280;35336;48.400;10.886;2023-02-02T00:10:35;96706.31;;;2.87;77.07
49451;BME280;35336;48.400;10.886;2023-02-02T00:10:50;96698.94;;;2.91;76.68
49451;BME280;35336;48.400;10.886;2023-02-02T00:11:05;96692.16;;;2.88;77.05
49451;BME280;35336;48.400;10.886;2023-02-02T00:11:21;96678.75;;;2.81;77.00
49451;BME280;35336;48.400;10.886;2023-02-02T00:11:36;96701.88;;;2.97;77.30
49451;BME280;35336;48.400;10.886;2023-02-02T00:11:51;96715.03;;;2.97;77.11
49451;BME280;35336;48.400;10.886;2023-02-02T00:12:08;96703.41;;;2.90;77.34
49451;BME280;35336;48.400;10.886;2023-02-02T00:12:24;96694.81;;;2.88;77.30
49451;BME280;35336;48.400;10.886;2023-02-02T00:12:39;96675.97;;;2.83;77.06
49451;BME280;35336;48.400;10.886;2023-02-02T00:12:54;96702.28;;;2.93;76.82
49451;BME280;35336;48.400;10.886;2023-02-02T00:13:11;96705.88;;;2.92;76.71
49451;BME280;35336;48.400;10.886;2023-02-02T00:13:26;96717.81;;;2.96;76.86
49451;BME280;35336;48.400;10.886;2023-02-02T00:13:42;96705.63;;;2.95;76.73
49451;BME280;35336;48.400;10.886;2023-02-02T00:13:57;96672.38;;;2.74;76.60
49451;BME280;35336;48.400;10.886;2023-02-02T00:14:13;96696.75;;;2.96;76.82
49451;BME280;35336;48.400;10.886;2023-02-02T00:14:28;96712.56;;;2.96;77.11
49451;BME280;35336;48.400;10.886;2023-02-02T00:14:44;96687.75;;;2.89;77.27
49451;BME280;35336;48.400;10.886;2023-02-02T00:14:59;96675.97;;;2.83;77.15
49451;BME280;35336;48.400;10.886;2023-02-02T00:15:15;96698.28;;;2.98;76.94
49451;BME280;35336;48.400;10.886;2023-02-02T00:15:30;96710.59;;;2.98;76.88
49451;BME280;35336;48.400;10.886;2023-02-02T00:15:45;96690.38;;;2.89;77.08
49451;BME280;35336;48.400;10.886;2023-02-02T00:16:33;96646.88;;;2.65;77.01
49451;BME280;35336;48.400;10.886;2023-02-02T00:16:51;96691.06;;;2.91;77.25
49451;BME280;35336;48.400;10.886;2023-02-02T00:17:08;96685.69;;;2.82;77.40
49451;BME280;35336;48.400;10.886;2023-02-02T00:17:25;96693.41;;;2.94;77.45
49451;BME280;35336;48.400;10.886;2023-02-02T00:17:40;96671.25;;;2.86;76.90
49451;BME280;35336;48.400;10.886;2023-02-02T00:17:55;96693.16;;;2.97;77.45
49451;BME280;35336;48.400;10.886;2023-02-02T00:18:11;96698.41;;;2.97;77.39
49451;BME280;35336;48.400;10.886;2023-02-02T00:18:26;96698.41;;;2.97;77.30
49451;BME280;35336;48.400;10.886;2023-02-02T00:18:42;96685.94;;;2.89;77.40
49451;BME280;35336;48.400;10.886;2023-02-02T00:19:00;96692.69;;;3.01;77.39
49451;BME280;35336;48.400;10.886;2023-02-02T00:19:24;96674.28;;;2.92;77.61
49451;BME280;35336;48.400;10.886;2023-02-02T00:19:40;96676.78;;;2.93;77.70
49451;BME280;35336;48.400;10.886;2023-02-02T00:19:55;96691.19;;;2.99;77.59
49451;BME280;35336;48.400;10.886;2023-02-02T00:20:11;96690.22;;;3.00;77.58
49451;BME280;35336;48.400;10.886;2023-02-02T00:20:26;96681.22;;;2.93;77.77
49451;BME280;35336;48.400;10.886;2023-02-02T00:20:42;96661.13;;;2.92;77.30
49451;BME280;35336;48.400;10.886;2023-02-02T00:20:57;96687.72;;;2.98;77.44
49451;BME280;35336;48.400;10.886;2023-02-02T00:21:12;96689.53;;;2.98;77.32
49451;BME280;35336;48.400;10.886;2023-02-02T00:21:28;96702.03;;;2.96;77.36
49451;BME280;35336;48.400;10.886;2023-02-02T00:21:44;96679.97;;;2.97;77.47
49451;BME280;35336;48.400;10.886;2023-02-02T00:21:59;96686.47;;;2.93;77.55
49451;BME280;35336;48.400;10.886;2023-02-02T00:22:15;96668.59;;;2.86;77.39
49451;BME280;35336;48.400;10.886;2023-02-02T00:22:30;96704.50;;;2.97;77.04
49451;BME280;35336;48.400;10.886;2023-02-02T00:22:45;96699.38;;;2.96;77.03
49451;BME280;35336;48.400;10.886;2023-02-02T00:23:01;96667.50;;;2.79;77.16
49451;BME280;35336;48.400;10.886;2023-02-02T00:23:16;96674.69;;;2.87;77.14
49451;BME280;35336;48.400;10.886;2023-02-02T00:23:32;96680.81;;;2.88;77.55
49451;BME280;35336;48.400;10.886;2023-02-02T00:23:47;96664.16;;;2.77;77.49
49451;BME280;35336;48.400;10.886;2023-02-02T00:24:05;96678.19;;;2.88;77.32
49451;BME280;35336;48.400;10.886;2023-02-02T00:24:21;96680.13;;;2.85;77.85
49451;BME280;35336;48.400;10.886;2023-02-02T00:24:36;96685.38;;;2.95;77.74
49451;BME280;35336;48.400;10.886;2023-02-02T00:24:51;96698.84;;;2.92;77.60
49451;BME280;35336;48.400;10.886;2023-02-02T00:25:07;96677.47;;;2.85;77.26
49451;BME280;35336;48.400;10.886;2023-02-02T00:25:23;96673.31;;;2.83;77.70
49451;BME280;35336;48.400;10.886;2023-02-02T00:25:38;96663.50;;;2.75;77.35
49451;BME280;35336;48.400;10.886;2023-02-02T00:25:53;96661.28;;;2.70;77.65
49451;BME280;35336;48.400;10.886;2023-02-02T00:26:09;96688.16;;;2.94;77.81
49451;BME280;35336;48.400;10.886;2023-02-02T00:26:24;96682.75;;;2.85;77.29
49451;BME280;35336;48.400;10.886;2023-02-02T00:26:41;96695.09;;;2.95;77.57
49451;BME280;35336;48.400;10.886;2023-02-02T00:26:58;96689.69;;;2.86;77.81
49451;BME280;35336;48.400;10.886;2023-02-02T00:27:14;96690.78;;;2.94;77.90
49451;BME280;35336;48.400;10.886;2023-02-02T00:27:29;96693.56;;;2.92;77.64
49451;BME280;35336;48.400;10.886;2023-02-02T00:27:44;96688.16;;;2.94;77.43
49451;BME280;35336;48.400;10.886;2023-02-02T00:28:00;96701.06;;;2.97;77.61
49451;BME280;35336;48.400;10.886;2023-02-02T00:28:15;96684.25;;;2.88;77.39
49451;BME280;35336;48.400;10.886;2023-02-02T00:28:31;96667.66;;;2.88;77.79
49451;BME280;35336;48.400;10.886;2023-02-02T00:28:46;96692.59;;;2.93;77.60
49451;BME280;35336;48.400;10.886;2023-02-02T00:29:02;96679.13;;;2.96;77.67
49451;BME280;35336;48.400;10.886;2023-02-02T00:29:21;96694.94;;;2.96;77.77
49451;BME280;35336;48.400;10.886;2023-02-02T00:29:37;96684.25;;;2.98;77.92
49451;BME280;35336;48.400;10.886;2023-02-02T00:29:52;96676.25;;;2.90;77.71
49451;BME280;35336;48.400;10.886;2023-02-02T00:30:08;96665.03;;;2.78;77.28
49451;BME280;35336;48.400;10.886;2023-02-02T00:30:24;96661.13;;;2.72;76.95
49451;BME280;35336;48.400;10.886;2023-02-02T00:30:39;96694.53;;;2.91;77.20
49451;BME280;35336;48.400;10.886;2023-02-02T00:30:54;96692.59;;;2.93;77.13
49451;BME280;35336;48.400;10.886;2023-02-02T00:31:10;96691.75;;;2.93;77.39
49451;BME280;35336;48.400;10.886;2023-02-02T00:31:26;96689.13;;;2.93;77.26
49451;BME280;35336;48.400;10.886;2023-02-02T00:31:41;96683.84;;;2.93;77.68
49451;BME280;35336;48.400;10.886;2023-02-02T00:31:57;96670.69;;;2.83;77.58
49451;BME280;35336;48.400;10.886;2023-02-02T00:32:12;96662.94;;;2.81;77.78
49451;BME280;35336;48.400;10.886;2023-02-02T00:32:27;96690.09;;;2.92;77.79
49451;BME280;35336;48.400;10.886;2023-02-02T00:32:43;96656.03;;;2.70;77.71
49451;BME280;35336;48.400;10.886;2023-02-02T00:32:58;96688.41;;;2.91;77.67
49451;BME280;35336;48.400;10.886;2023-02-02T00:33:13;96667.09;;;2.84;77.72
49451;BME280;35336;48.400;10.886;2023-02-02T00:33:29;96680.41;;;2.92;77.92
49451;BME280;35336;48.400;10.886;2023-02-02T00:33:45;96684.81;;;2.92;77.78
49451;BME280;35336;48.400;10.886;2023-02-02T00:34:01;96702.28;;;2.93;77.19
49451;BME280;35336;48.400;10.886;2023-02-02T00:34:17;96701.47;;;2.92;76.87
49451;BME280;35336;48.400;10.886;2023-02-02T00:34:32;96685.38;;;2.85;76.95
49451;BME280;35336;48.400;10.886;2023-02-02T00:34:48;96669.19;;;2.80;76.96
49451;BME280;35336;48.400;10.886;2023-02-02T00:35:03;96664.59;;;2.82;76.62
49451;BME280;35336;48.400;10.886;2023-02-02T00:35:19;96655.16;;;2.80;77.01
49451;BME280;35336;48.400;10.886;2023-02-02T00:35:34;96670.81;;;3.01;76.91
49451;BME280;35336;48.400;10.886;2023-02-02T00:35:52;96676.66;;;2.95;77.00
49451;BME280;35336;48.400;10.886;2023-02-02T00:36:08;96686.47;;;3.02;76.98
49451;BME280;35336;48.400;10.886;2023-02-02T00:36:23;96668.75;;;2.95;76.98
49451;BME280;35336;48.400;10.886;2023-02-02T00:36:39;96722.78;;;2.99;76.77
49451;BME280;35336;48.400;10.886;2023-02-02T00:36:55;96687.59;;;3.00;76.79
49451;BME280;35336;48.400;10.886;2023-02-02T00:37:10;96707.00;;;2.99;76.34
49451;BME280;35336;48.400;10.886;2023-02-02T00:37:25;96677.34;;;2.97;76.20
49451;BME280;35336;48.400;10.886;2023-02-02T00:37:41;96682.47;;;2.89;76.51
49451;BME280;35336;48.400;10.886;2023-02-02T00:37:56;96679.69;;;3.00;76.36
49451;BME280;35336;48.400;10.886;2023-02-02T00:38:12;96680.41;;;2.92;76.54
49451;BME280;35336;48.400;10.886;2023-02-02T00:38:27;96663.19;;;2.98;76.68
49451;BME280;35336;48.400;10.886;2023-02-02T00:38:42;96678.97;;;2.98;76.43
49451;BME280;35336;48.400;10.886;2023-02-02T00:38:58;96671.66;;;2.92;77.03
49451;BME280;35336;48.400;10.886;2023-02-02T00:39:17;96663.34;;;2.86;76.90
49451;BME280;35336;48.400;10.886;2023-02-02T00:39:33;96674.28;;;2.92;76.83
49451;BME280;35336;48.400;10.886;2023-02-02T00:39:49;96685.13;;;2.89;76.67
49451;BME280;35336;48.400;10.886;2023-02-02T00:40:04;96680.66;;;2.89;76.64
49451;BME280;35336;48.400;10.886;2023-02-02T00:40:20;96675.53;;;2.97;76.57
49451;BME280;35336;48.400;10.886;2023-02-02T00:40:35;96678.31;;;2.96;76.70
49451;BME280;35336;48.400;10.886;2023-02-02T00:40:51;96687.88;;;2.97;76.94
49451;BME280;35336;48.400;10.886;2023-02-02T00:41:06;96670.97;;;2.90;76.92
49451;BME280;35336;48.400;10.886;2023-02-02T00:41:21;96687.03;;;2.96;77.10
49451;BME280;35336;48.400;10.886;2023-02-02T00:41:37;96679.13;;;2.96;76.79
49451;BME280;35336;48.400;10.886;2023-02-02T00:41:53;96684.94;;;3.00;77.43
49451;BME280;35336;48.400;10.886;2023-02-02T00:42:10;96686.22;;;2.96;76.88
49451;BME280;35336;48.400;10.886;2023-02-02T00:42:26;96676.78;;;2.93;76.79
49451;BME280;35336;48.400;10.886;2023-02-02T00:42:41;96687.44;;;2.92;76.72
49451;BME280;35336;48.400;10.886;2023-02-02T00:42:56;96680.25;;;2.94;76.75
49451;BME280;35336;48.400;10.886;2023-02-02T00:43:12;96675.53;;;2.97;76.54
49451;BME280;35336;48.400;10.886;2023-02-02T00:43:27;96670.81;;;2.91;76.89
49451;BME280;35336;48.400;10.886;2023-02-02T00:43:43;96681.50;;;2.99;76.50
49451;BME280;35336;48.400;10.886;2023-02-02T00:43:58;96678.16;;;2.97;76.73
49451;BME280;35336;48.400;10.886;2023-02-02T00:44:13;96682.19;;;2.92;76.53
49451;BME280;35336;48.400;10.886;2023-02-02T00:44:29;96698.13;;;3.00;76.69
49451;BME280;35336;48.400;10.886;2023-02-02T00:44:44;96672.75;;;2.89;76.35
49451;BME280;35336;48.400;10.886;2023-02-02T00:44:59;96691.19;;;2.99;76.66
49451;BME280;35336;48.400;10.886;2023-02-02T00:45:15;96669.31;;;2.89;76.49
49451;BME280;35336;48.400;10.886;2023-02-02T00:45:30;96693.16;;;2.97;76.61
49451;BME280;35336;48.400;10.886;2023-02-02T00:45:46;96690.38;;;2.98;76.62
49451;BME280;35336;48.400;10.886;2023-02-02T00:46:02;96677.88;;;2.91;76.88
49451;BME280;35336;48.400;10.886;2023-02-02T00:46:17;96690.38;;;2.98;77.10
49451;BME280;35336;48.400;10.886;2023-02-02T00:46:33;96688.69;;;2.97;76.76
49451;BME280;35336;48.400;10.886;2023-02-02T00:46:48;96686.88;;;2.98;76.67
49451;BME280;35336;48.400;10.886;2023-02-02T00:47:04;96668.59;;;2.96;76.88
49451;BME280;35336;48.400;10.886;2023-02-02T00:47:19;96655.47;;;2.77;76.86
49451;BME280;35336;48.400;10.886;2023-02-02T00:47:35;96695.34;;;3.01;76.88
49451;BME280;35336;48.400;10.886;2023-02-02T00:47:50;96689.25;;;3.01;76.93
49451;BME280;35336;48.400;10.886;2023-02-02T00:48:06;96694.13;;;2.96;76.53
49451;BME280;35336;48.400;10.886;2023-02-02T00:48:21;96690.53;;;2.97;76.73
49451;BME280;35336;48.400;10.886;2023-02-02T00:48:36;96702.69;;;2.98;76.83
49451;BME280;35336;48.400;10.886;2023-02-02T00:48:52;96678.19;;;2.88;76.64
49451;BME280;35336;48.400;10.886;2023-02-02T00:49:08;96688.72;;;2.88;76.94
49451;BME280;35336;48.400;10.886;2023-02-02T00:49:23;96697.03;;;2.93;76.82
49451;BME280;35336;48.400;10.886;2023-02-02T00:49:38;96679.56;;;2.82;76.64
49451;BME280;35336;48.400;10.886;2023-02-02T00:49:54;96683.16;;;2.91;76.73
49451;BME280;35336;48.400;10.886;2023-02-02T00:50:11;96681.91;;;2.95;76.48
49451;BME280;35336;48.400;10.886;2023-02-02T00:50:27;96704.25;;;3.00;76.67
49451;BME280;35336;48.400;10.886;2023-02-02T00:50:43;96699.78;;;3.01;77.04
49451;BME280;35336;48.400;10.886;2023-02-02T00:50:58;96687.47;;;2.82;76.66
49451;BME280;35336;48.400;10.886;2023-02-02T00:51:13;96677.34;;;2.87;76.77
49451;BME280;35336;48.400;10.886;2023-02-02T00:51:29;96707.00;;;2.99;76.65
49451;BME280;35336;48.400;10.886;2023-02-02T00:51:44;96688.84;;;2.96;76.56
49451;BME280;35336;48.400;10.886;2023-02-02T00:51:59;96660.72;;;2.86;76.98
49451;BME280;35336;48.400;10.886;2023-02-02T00:52:15;96682.06;;;2.93;76.91
49451;BME280;35336;48.400;10.886;2023-02-02T00:52:30;96667.09;;;2.84;76.54
49451;BME280;35336;48.400;10.886;2023-02-02T00:52:47;96682.06;;;2.93;76.47
49451;BME280;35336;48.400;10.886;2023-02-02T00:53:02;96691.34;;;2.97;76.39
49451;BME280;35336;48.400;10.886;2023-02-02T00:53:18;96675.97;;;2.83;76.60
49451;BME280;35336;48.400;10.886;2023-02-02T00:53:34;96687.59;;;2.90;76.41
49451;BME280;35336;48.400;10.886;2023-02-02T00:53:49;96684.25;;;2.88;76.65
49451;BME280;35336;48.400;10.886;2023-02-02T00:54:04;96670.84;;;2.81;76.65
49451;BME280;35336;48.400;10.886;2023-02-02T00:54:20;96692.16;;;2.98;76.73
49451;BME280;35336;48.400;10.886;2023-02-02T00:54:35;96690.53;;;2.97;77.21
49451;BME280;35336;48.400;10.886;2023-02-02T00:54:50;96698.13;;;3.00;76.94
49451;BME280;35336;48.400;10.886;2023-02-02T00:55:06;96686.63;;;3.01;76.56
49451;BME280;35336;48.400;10.886;2023-02-02T00:55:22;96690.91;;;3.02;76.82
49451;BME280;35336;48.400;10.886;2023-02-02T00:55:37;96668.47;;;2.78;76.84
49451;BME280;35336;48.400;10.886;2023-02-02T00:55:53;96680.41;;;2.92;77.02
49451;BME280;35336;48.400;10.886;2023-02-02T00:56:08;96702.28;;;3.02;76.81
49451;BME280;35336;48.400;10.886;2023-02-02T00:56:24;96692.31;;;2.96;76.81
49451;BME280;35336;48.400;10.886;2023-02-02T00:56:40;96696.19;;;3.02;76.81
49451;BME280;35336;48.400;10.886;2023-02-02T00:56:55;96689.81;;;2.95;76.55
49451;BME280;35336;48.400;10.886;2023-02-02T00:57:12;96675.94;;;2.93;76.51
49451;BME280;35336;48.400;10.886;2023-02-02T00:57:28;96689.81;;;3.05;76.84
49451;BME280;35336;48.400;10.886;2023-02-02T00:57:43;96712.69;;;3.04;76.71
49451;BME280;35336;48.400;10.886;2023-02-02T00:57:58;96687.19;;;2.95;76.52
49451;BME280;35336;48.400;10.886;2023-02-02T00:58:14;96702.16;;;3.04;76.89
49451;BME280;35336;48.400;10.886;2023-02-02T00:58:29;96698.69;;;3.04;76.48
49451;BME280;35336;48.400;10.886;2023-02-02T00:58:45;96667.78;;;2.86;76.80
49451;BME280;35336;48.400;10.886;2023-02-02T00:59:00;96675.94;;;2.93;76.79
49451;BME280;35336;48.400;10.886;2023-02-02T00:59:15;96679.28;;;2.95;76.85
49451;BME280;35336;48.400;10.886;2023-02-02T00:59:31;96693.25;;;3.05;76.43
49451;BME280;35336;48.400;10.886;2023-02-02T00:59:47;96681.63;;;2.98;76.39
49451;BME280;35336;48.400;10.886;2023-02-02T01:00:04;96692.59;;;3.03;76.70
49451;BME280;35336;48.400;10.886;2023-02-02T01:00:23;96679.00;;;2.88;76.49
49451;BME280;35336;48.400;10.886;2023-02-02T01:00:39;96698.13;;;3.00;76.66
49451;BME280;35336;48.400;10.886;2023-02-02T01:00:54;96692.59;;;2.93;76.74
49451;BME280;35336;48.400;10.886;2023-02-02T01:01:19;96700.06;;;2.98;76.98
49451;BME280;35336;48.400;10.886;2023-02-02T01:01:35;96704.25;;;3.00;77.11
49451;BME280;35336;48.400;10.886;2023-02-02T01:01:50;96705.06;;;3.01;76.63
49451;BME280;35336;48.400;10.886;2023-02-02T01:02:06;96691.75;;;2.93;76.38
49451;BME280;35336;48.400;10.886;2023-02-02T01:02:21;96671.25;;;2.86;76.28
49451;BME280;35336;48.400;10.886;2023-02-02T01:02:36;96698.97;;;3.00;76.51
49451;BME280;35336;48.400;10.886;2023-02-02T01:02:53;96682.88;;;2.94;76.34
49451;BME280;35336;48.400;10.886;2023-02-02T01:03:08;96684.53;;;2.95;76.68
49451;BME280;35336;48.400;10.886;2023-02-02T01:03:24;96694.53;;;3.01;76.90
49451;BME280;35336;48.400;10.886;2023-02-02T01:03:39;96685.38;;;2.95;76.85
49451;BME280;35336;48.400;10.886;2023-02-02T01:03:55;96680.50;;;2.91;76.33
49451;BME280;35336;48.400;10.886;2023-02-02T01:04:10;96670.44;;;2.86;76.48
49451;BME280;35336;48.400;10.886;2023-02-02T01:04:25;96689.53;;;2.98;76.71
49451;BME280;35336;48.400;10.886;2023-02-02T01:04:41;96650.19;;;2.77;77.06
49451;BME280;35336;48.400;10.886;2023-02-02T01:04:56;96699.78;;;3.01;76.69
49451;BME280;35336;48.400;10.886;2023-02-02T01:05:12;96677.63;;;2.94;76.65
49451;BME280;35336;48.400;10.886;2023-02-02T01:05:27;96690.09;;;2.92;76.33
49451;BME280;35336;48.400;10.886;2023-02-02T01:05:42;96681.63;;;2.98;76.06
49451;BME280;35336;48.400;10.886;2023-02-02T01:05:58;96678.88;;;2.90;76.33
49451;BME280;35336;48.400;10.886;2023-02-02T01:06:13;96680.25;;;2.94;76.29
49451;BME280;35336;48.400;10.886;2023-02-02T01:06:29;96684.25;;;2.98;76.36
49451;BME280;35336;48.400;10.886;2023-02-02T01:06:45;96688.41;;;2.91;76.08
49451;BME280;35336;48.400;10.886;2023-02-02T01:07:00;96694.13;;;2.96;76.26
49451;BME280;35336;48.400;10.886;2023-02-02T01:07:16;96669.97;;;2.91;76.33
49451;BME280;35336;48.400;10.886;2023-02-02T01:07:31;96693.41;;;2.94;76.40
49451;BME280;35336;48.400;10.886;2023-02-02T01:07:47;96687.34;;;2.93;76.22
49451;BME280;35336;48.400;10.886;2023-02-02T01:08:02;96687.03;;;2.96;76.85
49451;BME280;35336;48.400;10.886;2023-02-02T01:08:17;96679.84;;;2.89;76.46
49451;BME280;35336;48.400;10.886;2023-02-02T01:08:32;96700.06;;;2.98;76.44
49451;BME280;35336;48.400;10.886;2023-02-02T01:08:48;96680.97;;;2.86;76.58
49451;BME280;35336;48.400;10.886;2023-02-02T01:09:03;96675.13;;;2.82;76.68
49451;BME280;35336;48.400;10.886;2023-02-02T01:09:19;96691.75;;;2.93;76.93
49451;BME280;35336;48.400;10.886;2023-02-02T01:09:34;96683.59;;;2.86;76.55
49451;BME280;35336;48.400;10.886;2023-02-02T01:09:50;96689.81;;;2.85;76.44
49451;BME280;35336;48.400;10.886;2023-02-02T01:10:07;96673.19;;;2.84;76.49
49451;BME280;35336;48.400;10.886;2023-02-02T01:10:23;96699.81;;;2.91;76.47
49451;BME280;35336;48.400;10.886;2023-02-02T01:10:38;96701.47;;;2.92;76.42
49451;BME280;35336;48.400;10.886;2023-02-02T01:10:58;96690.66;;;2.85;76.62
49451;BME280;35336;48.400;10.886;2023-02-02T01:11:14;96680.25;;;2.94;76.74
49451;BME280;35336;48.400;10.886;2023-02-02T01:11:29;96654.91;;;2.73;76.95
49451;BME280;35336;48.400;10.886;2023-02-02T01:11:44;96702.03;;;2.96;76.96
49451;BME280;35336;48.400;10.886;2023-02-02T01:12:00;96696.06;;;2.94;76.44
49451;BME280;35336;48.400;10.886;2023-02-02T01:12:15;96679.16;;;2.86;76.58
49451;BME280;35336;48.400;10.886;2023-02-02T01:12:30;96695.91;;;2.95;76.97
49451;BME280;35336;48.400;10.886;2023-02-02T01:12:46;96681.50;;;2.90;77.04
49451;BME280;35336;48.400;10.886;2023-02-02T01:13:02;96684.53;;;2.95;76.77
49451;BME280;35336;48.400;10.886;2023-02-02T01:13:17;96661.97;;;2.82;77.11
49451;BME280;35336;48.400;10.886;2023-02-02T01:13:33;96701.16;;;2.95;76.72
49451;BME280;35336;48.400;10.886;2023-02-02T01:13:48;96699.38;;;2.96;76.66
49451;BME280;35336;48.400;10.886;2023-02-02T01:14:04;96701.06;;;2.97;76.44
49451;BME280;35336;48.400;10.886;2023-02-02T01:14:20;96677.75;;;2.92;76.76
49451;BME280;35336;48.400;10.886;2023-02-02T01:14:35;96643.66;;;2.71;76.65
49451;BME280;35336;48.400;10.886;2023-02-02T01:14:50;96665.69;;;2.99;76.75
49451;BME280;35336;48.400;10.886;2023-02-02T01:15:06;96692.44;;;3.05;76.35
49451;BME280;35336;48.400;10.886;2023-02-02T01:15:22;96692.44;;;3.05;76.33
49451;BME280;35336;48.400;10.886;2023-02-02T01:15:37;96674.97;;;2.94;76.24
49451;BME280;35336;48.400;10.886;2023-02-02T01:15:57;96678.72;;;3.01;76.66
49451;BME280;35336;48.400;10.886;2023-02-02T01:16:13;96690.91;;;3.02;76.52
49451;BME280;35336;48.400;10.886;2023-02-02T01:16:28;96662.66;;;2.84;76.46
49451;BME280;35336;48.400;10.886;2023-02-02T01:16:43;96646.03;;;2.74;76.01
49451;BME280;35336;48.400;10.886;2023-02-02T01:16:59;96684.13;;;2.99;76.11
49451;BME280;35336;48.400;10.886;2023-02-02T01:17:14;96669.88;;;2.82;75.98
49451;BME280;35336;48.400;10.886;2023-02-02T01:17:30;96670.97;;;2.90;76.17
49451;BME280;35336;48.400;10.886;2023-02-02T01:17:45;96692.03;;;2.99;76.51
49451;BME280;35336;48.400;10.886;2023-02-02T01:18:00;96685.25;;;2.97;76.19
49451;BME280;35336;48.400;10.886;2023-02-02T01:18:16;96688.44;;;3.00;75.96
49451;BME280;35336;48.400;10.886;2023-02-02T01:18:31;96690.06;;;3.01;76.44
49451;BME280;35336;48.400;10.886;2023-02-02T01:18:47;96680.22;;;3.04;76.15
49451;BME280;35336;48.400;10.886;2023-02-02T01:19:03;96720.31;;;3.07;76.19
49451;BME280;35336;48.400;10.886;2023-02-02T01:19:18;96668.75;;;2.95;75.92
49451;BME280;35336;48.400;10.886;2023-02-02T01:19:34;96690.63;;;3.05;76.18
49451;BME280;35336;48.400;10.886;2023-02-02T01:19:49;96696.59;;;3.07;76.10
49451;BME280;35336;48.400;10.886;2023-02-02T01:20:05;96689.66;;;3.06;76.13
49451;BME280;35336;48.400;10.886;2023-02-02T01:20:21;96685.25;;;2.97;76.11
49451;BME280;35336;48.400;10.886;2023-02-02T01:20:37;96655.03;;;2.81;76.25
49451;BME280;35336;48.400;10.886;2023-02-02T01:21:00;96698.53;;;3.05;76.15
49451;BME280;35336;48.400;10.886;2023-02-02T01:21:15;96692.69;;;3.01;76.18
49451;BME280;35336;48.400;10.886;2023-02-02T01:21:31;96678.59;;;2.93;76.14
49451;BME280;35336;48.400;10.886;2023-02-02T01:21:46;96685.50;;;3.04;76.16
49451;BME280;35336;48.400;10.886;2023-02-02T01:22:02;96690.63;;;3.05;76.41
49451;BME280;35336;48.400;10.886;2023-02-02T01:22:17;96693.41;;;3.04;76.14
49451;BME280;35336;48.400;10.886;2023-02-02T01:22:33;96698.69;;;3.04;76.37
49451;BME280;35336;48.400;10.886;2023-02-02T01:22:48;96695.22;;;3.03;76.40
49451;BME280;35336;48.400;10.886;2023-02-02T01:23:04;96698.69;;;3.04;76.19
49451;BME280;35336;48.400;10.886;2023-02-02T01:23:19;96677.34;;;2.97;76.12
49451;BME280;35336;48.400;10.886;2023-02-02T01:23:35;96684.94;;;3.00;76.25
49451;BME280;35336;48.400;10.886;2023-02-02T01:23:51;96682.88;;;3.04;76.09
49451;BME280;35336;48.400;10.886;2023-02-02T01:24:06;96682.31;;;3.00;75.80